Time;durP1;ratioP1;P1;durP2;ratioP2;P2;SDS_P1;SDS_P2;PMS_P1;PMS_P2;Temp;Humidity;BMP_temperature;BMP_pressure;BME280_temperature;BME280_humidity;BME280_pressure;Samples;Min_cycle;Max_cycle;Signal;HPM_P1;HPM_P2
2021/01/03 00:00:45;;;;;;;;;;;;;;;19.67;58.03;101383.25;5035231;28;1379;-64
2021/01/03 00:03:10;;;;;;;;;;;;;;;19.64;58.01;101372.78;5033746;28;1471;-67
2021/01/03 00:05:35;;;;;;;;;;;;;;;19.68;57.87;101395.72;5034640;28;873;-64
2021/01/03 00:08:01;;;;;;;;;;;;;;;19.65;57.67;101382.53;5013886;28;1509;-67
2021/01/03 00:10:26;;;;;;;;;;;;;;;19.67;57.94;101388.63;5002121;28;1894;-66
2021/01/03 00:12:52;;;;;;;;;;;;;;;19.60;57.92;101385.59;4998142;28;1194;-64
2021/01/03 00:15:19;;;;;;;;;;;;;;;19.62;57.78;101375.59;5034028;28;1583;-67
2021/01/03 00:17:45;;;;;;;;;;;;;;;19.62;57.78;101391.69;5013049;28;1531;-64
2021/01/03 00:20:16;;;;;;;;;;;;;;;19.63;57.59;101392.53;5016387;28;1409;-67
2021/01/03 00:22:41;;;;;;;;;;;;;;;19.61;57.77;101389.13;5015396;28;730;-64
2021/01/03 00:25:07;;;;;;;;;;;;;;;19.59;57.64;101385.72;5015229;28;758;-67
2021/01/03 00:27:33;;;;;;;;;;;;;;;19.57;57.52;101385.00;5015692;28;809;-67
2021/01/03 00:29:59;;;;;;;;;;;;;;;19.57;57.54;101385.00;4997947;28;1973;-67
2021/01/03 00:32:24;;;;;;;;;;;;;;;19.53;57.56;101381.69;5018878;28;1504;-67
2021/01/03 00:34:49;;;;;;;;;;;;;;;19.53;57.31;101386.22;5034805;28;801;-63
2021/01/03 00:37:15;;;;;;;;;;;;;;;19.55;57.43;101385.09;5017455;28;1118;-66
2021/01/03 00:39:40;;;;;;;;;;;;;;;19.56;57.30;101364.53;5033001;28;1433;-67
2021/01/03 00:42:05;;;;;;;;;;;;;;;19.54;57.34;101353.06;5015089;28;1256;-66
2021/01/03 00:44:31;;;;;;;;;;;;;;;19.59;57.08;101364.25;5021717;28;1346;-67
2021/01/03 00:46:56;;;;;;;;;;;;;;;19.55;57.11;101357.44;5024049;28;1382;-67
2021/01/03 00:49:22;;;;;;;;;;;;;;;19.55;57.03;101358.28;5022371;28;1226;-64
2021/01/03 00:51:47;;;;;;;;;;;;;;;19.58;56.88;101371.47;5006325;28;1949;-64
2021/01/03 00:54:12;;;;;;;;;;;;;;;19.54;56.80;101350.38;5025271;28;1401;-67
2021/01/03 00:56:38;;;;;;;;;;;;;;;19.56;56.75;101360.00;5032193;28;1343;-66
2021/01/03 00:59:03;;;;;;;;;;;;;;;19.58;56.68;101362.56;5029854;28;1317;-64
2021/01/03 01:01:28;;;;;;;;;;;;;;;19.53;56.72;101354.03;5015073;28;1390;-64
2021/01/03 01:03:54;;;;;;;;;;;;;;;19.50;56.66;101360.50;5034338;28;1496;-64
2021/01/03 01:06:19;;;;;;;;;;;;;;;19.51;56.63;101366.72;5034747;28;1005;-67
2021/01/03 01:08:45;;;;;;;;;;;;;;;19.51;56.54;101377.44;5025812;28;1283;-64
2021/01/03 01:11:10;;;;;;;;;;;;;;;19.53;56.46;101364.75;5000366;28;1955;-65
2021/01/03 01:13:36;;;;;;;;;;;;;;;19.50;56.48;101370.34;5004929;28;1473;-66
2021/01/03 01:16:02;;;;;;;;;;;;;;;19.52;56.49;101366.59;5004181;28;1371;-64
2021/01/03 01:18:27;;;;;;;;;;;;;;;19.53;56.42;101367.44;5006054;28;1327;-67
2021/01/03 01:20:53;;;;;;;;;;;;;;;19.47;56.19;101350.84;4991918;28;1280;-67
2021/01/03 01:23:18;;;;;;;;;;;;;;;19.51;56.20;101366.72;5007984;28;1340;-64
2021/01/03 01:25:43;;;;;;;;;;;;;;;19.47;56.15;101358.91;5008453;28;1351;-67
2021/01/03 01:28:09;;;;;;;;;;;;;;;19.50;56.06;101351.56;5009160;28;1402;-63
2021/01/03 01:30:37;;;;;;;;;;;;;;;19.47;56.19;101350.84;4995921;28;1979;-67
2021/01/03 01:33:03;;;;;;;;;;;;;;;19.45;55.80;101346.59;5007322;28;1308;-64
2021/01/03 01:35:30;;;;;;;;;;;;;;;19.43;56.09;101352.06;4999486;28;1338;-64
2021/01/03 01:37:56;;;;;;;;;;;;;;;19.42;56.10;101336.13;5007352;28;1445;-64
2021/01/03 01:40:23;;;;;;;;;;;;;;;19.44;56.15;101344.91;5007352;28;1258;-65
2021/01/03 01:42:49;;;;;;;;;;;;;;;19.43;55.96;101325.25;5008876;28;1480;-64
2021/01/03 01:45:16;;;;;;;;;;;;;;;19.41;55.79;101324.53;4996523;28;1345;-67
2021/01/03 01:47:43;;;;;;;;;;;;;;;19.42;55.86;101323.56;4996858;28;1481;-64
2021/01/03 01:50:10;;;;;;;;;;;;;;;19.42;55.94;101323.56;4998457;28;1886;-66
2021/01/03 01:52:42;;;;;;;;;;;;;;;19.39;55.96;101321.13;4998403;28;865;-67
2021/01/03 01:55:10;;;;;;;;;;;;;;;19.42;55.62;101320.88;4997403;28;1265;-64
2021/01/03 01:57:42;;;;;;;;;;;;;;;19.42;55.56;101299.44;5012929;28;1398;-67
2021/01/03 02:00:10;;;;;;;;;;;;;;;19.46;55.65;101321.50;5017854;28;743;-66
2021/01/03 02:02:39;;;;;;;;;;;;;;;19.44;55.43;101304.69;4988025;28;1537;-66
2021/01/03 02:05:31;;;;;;;;;;;;;;;19.45;55.37;101311.72;4981094;28;1142;-66
2021/01/03 02:08:14;;;;;;;;;;;;;;;19.43;55.43;101294.91;4997521;28;1457;-64
2021/01/03 02:10:41;;;;;;;;;;;;;;;19.44;55.41;101300.16;5000089;28;1951;-67
2021/01/03 02:13:10;;;;;;;;;;;;;;;19.44;55.70;101288.59;5011984;28;1580;-64
2021/01/03 02:15:36;;;;;;;;;;;;;;;19.42;55.48;101288.69;4999737;28;1478;-66
2021/01/03 02:18:03;;;;;;;;;;;;;;;19.42;55.24;101285.19;5005717;28;786;-64
2021/01/03 02:20:32;;;;;;;;;;;;;;;19.37;55.52;101285.53;4996988;28;1211;-67
2021/01/03 02:23:00;;;;;;;;;;;;;;;19.39;55.18;101272.00;5004909;28;1520;-64
2021/01/03 02:25:25;;;;;;;;;;;;;;;19.37;55.34;101273.97;4998270;28;743;-67
2021/01/03 02:28:26;;;;;;;;;;;;;;;19.37;55.31;101269.44;4997086;28;758;-67
2021/01/03 02:30:53;;;;;;;;;;;;;;;19.37;55.35;101258.72;4951246;29;1918;-66
2021/01/03 02:33:41;;;;;;;;;;;;;;;19.38;55.06;101257.75;5005885;28;953;-64
2021/01/03 02:36:20;;;;;;;;;;;;;;;19.38;55.16;101256.91;5017282;28;763;-63
2021/01/03 02:39:08;;;;;;;;;;;;;;;19.38;55.27;101259.59;4999992;28;1244;-66
2021/01/03 02:41:34;;;;;;;;;;;;;;;19.42;55.18;101255.69;4971758;28;1368;-66
2021/01/03 02:43:59;;;;;;;;;;;;;;;19.36;55.15;101245.41;4997897;28;1549;-63
2021/01/03 02:46:25;;;;;;;;;;;;;;;19.35;54.98;101238.38;4980257;28;1379;-64
2021/01/03 02:48:51;;;;;;;;;;;;;;;19.35;55.08;101260.66;4997498;28;802;-66
2021/01/03 02:51:16;;;;;;;;;;;;;;;19.37;54.85;101247.13;5011867;28;1878;-64
2021/01/03 02:53:41;;;;;;;;;;;;;;;19.34;54.94;101248.25;5016971;28;829;-67
2021/01/03 02:56:07;;;;;;;;;;;;;;;19.35;55.09;101252.63;4999684;28;1127;-63
2021/01/03 02:58:32;;;;;;;;;;;;;;;19.36;54.91;101251.66;4996757;28;1353;-64
2021/01/03 03:00:57;;;;;;;;;;;;;;;19.36;54.92;101242.75;5025246;23;2133;-47
2021/01/03 03:03:22;;;;;;;;;;;;;;;19.30;54.69;101229.84;5075017;28;1696;-48
2021/01/03 03:05:48;;;;;;;;;;;;;;;19.30;54.92;101232.53;5073747;28;1349;-47
2021/01/03 03:08:13;;;;;;;;;;;;;;;19.30;55.04;101241.44;5074650;28;1233;-48
2021/01/03 03:10:38;;;;;;;;;;;;;;;19.32;54.74;101234.13;5093556;22;3557;-67
2021/01/03 03:13:04;;;;;;;;;;;;;;;19.34;54.89;101236.66;5096799;28;1228;-67
2021/01/03 03:15:32;;;;;;;;;;;;;;;19.32;54.85;101226.06;5105879;28;1233;-64
2021/01/03 03:17:57;;;;;;;;;;;;;;;19.33;53.92;101227.75;5105283;28;1390;-67
2021/01/03 03:20:23;;;;;;;;;;;;;;;19.34;54.62;101225.94;5079905;28;1317;-66
2021/01/03 03:22:48;;;;;;;;;;;;;;;19.33;54.67;101225.09;5100057;28;1199;-63
2021/01/03 03:25:14;;;;;;;;;;;;;;;19.33;54.74;101230.44;5105331;28;1343;-64
2021/01/03 03:27:40;;;;;;;;;;;;;;;19.35;54.66;101238.38;5086732;28;1316;-67
2021/01/03 03:30:06;;;;;;;;;;;;;;;19.34;54.40;101226.81;5098342;28;1918;-65
2021/01/03 03:32:31;;;;;;;;;;;;;;;19.33;54.47;101216.19;5058205;28;1240;-66
2021/01/03 03:34:57;;;;;;;;;;;;;;;19.33;54.38;101214.34;5092781;28;1367;-67
2021/01/03 03:37:22;;;;;;;;;;;;;;;19.32;54.27;101234.13;5112278;28;1194;-65
2021/01/03 03:39:47;;;;;;;;;;;;;;;19.33;54.41;101232.28;5116380;28;832;-68
2021/01/03 03:42:13;;;;;;;;;;;;;;;19.32;54.25;101228.75;5079190;28;1378;-67
2021/01/03 03:44:39;;;;;;;;;;;;;;;19.31;54.19;101210.94;5077676;28;1470;-64
2021/01/03 03:47:04;;;;;;;;;;;;;;;19.30;54.61;101205.72;5086564;28;1278;-64
2021/01/03 03:49:31;;;;;;;;;;;;;;;19.32;54.74;101211.78;5105374;28;1194;-67
2021/01/03 03:51:57;;;;;;;;;;;;;;;19.36;54.30;101208.75;5104856;28;1893;-64
2021/01/03 03:54:23;;;;;;;;;;;;;;;19.33;54.62;101214.34;5094719;28;1218;-62
2021/01/03 03:56:49;;;;;;;;;;;;;;;19.39;54.73;101213.84;5105165;28;1285;-59
2021/01/03 03:59:15;;;;;;;;;;;;;;;19.15;57.13;101214.03;5077373;28;1344;-63
2021/01/03 04:01:40;;;;;;;;;;;;;;;18.92;58.90;101215.94;5112749;27;1510;-61
2021/01/03 04:04:05;;;;;;;;;;;;;;;18.80;58.59;101201.69;5124366;27;1458;-66
2021/01/03 04:06:31;;;;;;;;;;;;;;;18.78;58.88;101202.75;5126557;27;1142;-63
2021/01/03 04:08:56;;;;;;;;;;;;;;;18.73;59.66;101213.00;5121223;27;1395;-66
2021/01/03 04:11:21;;;;;;;;;;;;;;;18.68;59.53;101203.50;5105823;28;1968;-63
2021/01/03 04:13:47;;;;;;;;;;;;;;;18.67;60.14;101211.66;5109466;27;1398;-66
2021/01/03 04:16:12;;;;;;;;;;;;;;;18.66;60.93;101218.84;5118027;27;1332;-66
2021/01/03 04:18:38;;;;;;;;;;;;;;;18.65;61.04;101218.94;5122377;27;1425;-67
2021/01/03 04:21:04;;;;;;;;;;;;;;;18.66;61.26;101210.81;5102501;28;1337;-62
2021/01/03 04:23:29;;;;;;;;;;;;;;;18.65;61.73;101208.25;5114231;28;1403;-66
2021/01/03 04:25:54;;;;;;;;;;;;;;;18.62;61.04;101204.00;5114856;28;1328;-63
2021/01/03 04:28:20;;;;;;;;;;;;;;;18.65;61.80;101209.09;5097504;28;1218;-65
2021/01/03 04:30:45;;;;;;;;;;;;;;;18.63;62.85;101203.00;5115309;28;1971;-64
2021/01/03 04:33:10;;;;;;;;;;;;;;;18.58;62.07;101207.88;5115439;28;850;-62
2021/01/03 04:35:35;;;;;;;;;;;;;;;18.61;62.55;101215.66;5114545;28;1442;-67
2021/01/03 04:38:01;;;;;;;;;;;;;;;18.53;63.87;101204.72;5115213;28;1463;-62
2021/01/03 04:40:30;;;;;;;;;;;;;;;18.55;63.82;101213.47;5115266;28;1454;-62
2021/01/03 04:43:03;;;;;;;;;;;;;;;18.52;63.97;101212.84;5115511;28;777;-62
2021/01/03 04:45:39;;;;;;;;;;;;;;;18.55;63.70;101223.34;5115329;28;989;-62
2021/01/03 04:48:06;;;;;;;;;;;;;;;18.54;63.14;101233.19;5097574;28;1414;-67
2021/01/03 04:50:47;;;;;;;;;;;;;;;18.52;63.66;101223.56;5096324;28;1890;-67
2021/01/03 04:53:30;;;;;;;;;;;;;;;18.49;62.66;101213.97;5114171;28;1422;-62
2021/01/03 04:56:14;;;;;;;;;;;;;;;18.51;62.36;101216.53;5096901;28;1434;-67
2021/01/03 04:58:46;;;;;;;;;;;;;;;18.54;63.29;101222.47;5114718;28;1143;-63
2021/01/03 05:01:21;;;;;;;;;;;;;;;18.55;62.68;101223.34;5097170;28;1466;-62
2021/01/03 05:03:52;;;;;;;;;;;;;;;18.58;61.88;101218.59;5118816;28;1136;-66
2021/01/03 05:06:24;;;;;;;;;;;;;;;18.55;62.45;101224.19;5098525;28;1261;-66
2021/01/03 05:08:56;;;;;;;;;;;;;;;18.54;62.00;101226.97;5103377;28;1439;-66
2021/01/03 05:11:23;;;;;;;;;;;;;;;18.49;62.11;101222.84;5113889;28;1964;-63
2021/01/03 05:13:54;;;;;;;;;;;;;;;18.49;62.15;101224.69;5088961;28;1246;-66
2021/01/03 05:16:20;;;;;;;;;;;;;;;18.51;62.67;101238.78;5112372;28;1164;-66
2021/01/03 05:18:45;;;;;;;;;;;;;;;18.49;62.79;101220.16;5095499;28;1373;-67
2021/01/03 05:21:11;;;;;;;;;;;;;;;18.48;63.20;101231.00;5113638;28;1169;-66
2021/01/03 05:23:38;;;;;;;;;;;;;;;18.48;62.26;101231.88;5108825;28;1461;-66
2021/01/03 05:26:05;;;;;;;;;;;;;;;18.45;62.48;101228.56;5084661;28;1442;-66
2021/01/03 05:28:32;;;;;;;;;;;;;;;18.47;62.30;101226.63;5090050;28;1484;-62
2021/01/03 05:31:18;;;;;;;;;;;;;;;18.44;63.36;101230.41;5105149;28;1990;-66
2021/01/03 05:34:00;;;;;;;;;;;;;;;18.44;62.86;101224.16;5091772;28;1339;-67
2021/01/03 05:36:31;;;;;;;;;;;;;;;18.42;62.78;101234.16;5086233;28;1402;-63
2021/01/03 05:38:57;;;;;;;;;;;;;;;18.41;62.90;101233.31;5086120;28;1352;-67
2021/01/03 05:41:30;;;;;;;;;;;;;;;18.42;62.90;101234.16;5102895;28;1278;-66
2021/01/03 05:44:07;;;;;;;;;;;;;;;18.42;62.88;101240.38;5107774;28;1216;-62
2021/01/03 05:46:36;;;;;;;;;;;;;;;18.43;63.01;101228.69;5102763;28;1492;-62
2021/01/03 05:49:06;;;;;;;;;;;;;;;18.46;62.56;101235.63;5085776;28;1406;-62
2021/01/03 05:51:31;;;;;;;;;;;;;;;18.45;62.13;101231.25;5105047;28;1894;-62
2021/01/03 05:54:08;;;;;;;;;;;;;;;18.45;62.91;101232.09;5101924;28;1306;-66
2021/01/03 05:56:34;;;;;;;;;;;;;;;18.45;62.98;101223.22;5094357;28;1221;-68
2021/01/03 05:59:00;;;;;;;;;;;;;;;18.46;62.84;101230.25;5101874;28;1382;-66
2021/01/03 06:01:29;;;;;;;;;;;;;;;18.43;62.50;101226.00;5077459;28;1516;-62
2021/01/03 06:04:03;;;;;;;;;;;;;;;18.40;62.64;101220.91;5099983;28;1420;-62
2021/01/03 06:06:57;;;;;;;;;;;;;;;18.44;62.42;101243.78;5105162;28;1349;-63
2021/01/03 06:09:30;;;;;;;;;;;;;;;18.37;62.57;101236.34;5109376;28;1334;-66
2021/01/03 06:11:57;;;;;;;;;;;;;;;18.40;62.66;101238.78;5094149;28;1951;-67
2021/01/03 06:14:23;;;;;;;;;;;;;;;18.40;62.25;101238.78;5105881;27;1417;-63
2021/01/03 06:16:48;;;;;;;;;;;;;;;18.40;62.33;101241.44;5103836;27;1384;-63
2021/01/03 06:19:32;;;;;;;;;;;;;;;18.39;62.47;101232.56;5102716;28;1401;-64
2021/01/03 06:21:57;;;;;;;;;;;;;;;18.40;63.03;101238.78;5100713;28;1389;-67
2021/01/03 06:24:27;;;;;;;;;;;;;;;18.39;62.33;101235.25;5099740;28;1352;-62
2021/01/03 06:26:54;;;;;;;;;;;;;;;18.39;62.75;101235.25;5084070;28;1517;-67
2021/01/03 06:29:32;;;;;;;;;;;;;;;18.36;62.72;101237.31;5086676;28;1437;-62
2021/01/03 06:32:03;;;;;;;;;;;;;;;18.38;63.04;101246.06;5096833;28;1982;-62
2021/01/03 06:34:28;;;;;;;;;;;;;;;18.35;62.56;101247.19;5101847;28;1411;-62
2021/01/03 06:37:02;;;;;;;;;;;;;;;18.35;62.39;101238.31;5091032;28;1425;-67
2021/01/03 06:39:31;;;;;;;;;;;;;;;18.36;63.32;101240.00;5102358;28;1317;-62
2021/01/03 06:42:22;;;;;;;;;;;;;;;18.33;62.64;101235.75;5102005;28;1337;-67
2021/01/03 06:44:47;;;;;;;;;;;;;;;18.29;63.03;101251.19;5104880;28;1384;-66
2021/01/03 06:47:31;;;;;;;;;;;;;;;18.32;63.06;101238.53;5112510;27;1376;-66
2021/01/03 06:50:12;;;;;;;;;;;;;;;18.31;63.00;101242.19;5108589;28;1365;-67
2021/01/03 06:53:03;;;;;;;;;;;;;;;18.32;62.64;101244.72;5117043;27;1200;-66
2021/01/03 06:55:37;;;;;;;;;;;;;;;18.28;62.91;101244.13;5107552;27;1494;-66
2021/01/03 06:58:18;;;;;;;;;;;;;;;18.28;63.25;101232.56;5108442;27;1482;-62
2021/01/03 07:00:48;;;;;;;;;;;;;;;18.31;63.40;101248.38;5106696;27;1484;-62
2021/01/03 07:03:33;;;;;;;;;;;;;;;18.34;64.54;101236.56;5102922;28;1357;-62
2021/01/03 07:06:05;;;;;;;;;;;;;;;18.42;64.21;101240.38;5096197;28;1330;-63
2021/01/03 07:08:42;;;;;;;;;;;;;;;18.45;64.08;101236.59;5111016;28;1163;-65
2021/01/03 07:11:27;;;;;;;;;;;;;;;18.47;63.71;101226.63;5087270;28;1894;-62
2021/01/03 07:13:53;;;;;;;;;;;;;;;18.43;64.45;101219.81;5075813;27;1524;-66
2021/01/03 07:16:45;;;;;;;;;;;;;;;18.43;65.10;101227.84;5105364;28;1553;-62
2021/01/03 07:19:12;;;;;;;;;;;;;;;18.44;64.58;101232.22;5097171;28;1748;-64
2021/01/03 07:21:42;;;;;;;;;;;;;;;18.42;64.41;101244.88;5087608;28;1691;-62
2021/01/03 07:24:37;;;;;;;;;;;;;;;18.37;65.19;101247.06;5108870;28;1408;-62
2021/01/03 07:27:21;;;;;;;;;;;;;;;18.39;64.48;101254.00;5042132;28;1451;-62
2021/01/03 07:30:09;;;;;;;;;;;;;;;18.34;64.84;101250.81;5109642;27;1420;-63
2021/01/03 07:32:38;;;;;;;;;;;;;;;18.38;64.03;101248.75;5095492;28;1910;-66
2021/01/03 07:35:29;;;;;;;;;;;;;;;18.37;63.96;101242.56;5107685;28;1486;-66
2021/01/03 07:38:15;;;;;;;;;;;;;;;18.38;64.06;101243.41;5112610;28;1515;-66
2021/01/03 07:40:58;;;;;;;;;;;;;;;18.38;64.96;101243.41;5103788;28;1521;-65
2021/01/03 07:43:24;;;;;;;;;;;;;;;18.36;64.55;101229.28;5095804;28;1564;-65
2021/01/03 07:45:49;;;;;;;;;;;;;;;18.30;64.30;101235.97;5096224;27;1329;-64
2021/01/03 07:48:30;;;;;;;;;;;;;;;18.38;64.03;101246.94;5120074;27;1317;-64
2021/01/03 07:50:55;;;;;;;;;;;;;;;18.26;64.89;101251.44;5107839;28;1954;-61
2021/01/03 07:53:34;;;;;;;;;;;;;;;18.16;64.29;101247.72;5102158;28;1084;-64
2021/01/03 07:56:29;;;;;;;;;;;;;;;18.12;64.85;101243.59;5109087;28;1428;-64
2021/01/03 07:58:55;;;;;;;;;;;;;;;17.96;64.99;101238.56;5096859;28;1523;-65
2021/01/03 08:01:22;;;;;;;;;;;;;;;17.91;64.88;101250.63;5095510;28;1624;-61
2021/01/03 08:03:47;;;;;;;;;;;;;;;17.95;64.56;101252.09;5098996;28;1409;-61
2021/01/03 08:06:13;;;;;;;;;;;;;;;17.99;63.41;101248.19;5110733;27;1333;-63
2021/01/03 08:08:38;;;;;;;;;;;;;;;17.99;63.77;101234.81;5093117;27;1240;-61
2021/01/03 08:11:04;;;;;;;;;;;;;;;17.97;63.14;101242.13;5109347;27;1980;-62
2021/01/03 08:13:32;;;;;;;;;;;;;;;17.94;63.59;101237.81;5094696;28;1756;-61
2021/01/03 08:16:00;;;;;;;;;;;;;;;17.91;62.80;101234.56;5105252;28;1420;-64
2021/01/03 08:18:27;;;;;;;;;;;;;;;17.93;62.46;101224.59;5089826;28;1571;-64
2021/01/03 08:21:01;;;;;;;;;;;;;;;17.91;63.01;101230.06;5102082;28;1424;-64
2021/01/03 08:23:28;;;;;;;;;;;;;;;17.89;61.68;101232.00;5113561;28;1024;-64
2021/01/03 08:26:12;;;;;;;;;;;;;;;17.88;61.59;101228.44;5114354;27;1400;-61
2021/01/03 08:28:58;;;;;;;;;;;;;;;17.87;62.88;101223.22;5104985;28;1682;-64
2021/01/03 08:31:25;;;;;;;;;;;;;;;17.83;61.79;101211.91;5100268;28;1969;-64
2021/01/03 08:33:51;;;;;;;;;;;;;;;17.73;62.92;101210.03;5105203;28;10884;-63
2021/01/03 08:36:16;;;;;;;;;;;;;;;17.81;61.28;101219.16;5106012;28;961;-61
2021/01/03 08:38:42;;;;;;;;;;;;;;;17.80;61.94;101214.75;5104096;28;1746;-64
2021/01/03 08:41:11;;;;;;;;;;;;;;;17.84;61.35;101212.75;5109579;27;1549;-60
2021/01/03 08:43:36;;;;;;;;;;;;;;;17.85;61.49;101199.25;5107896;27;1355;-64
2021/01/03 08:46:07;;;;;;;;;;;;;;;17.89;60.66;101202.56;5110627;27;1392;-62
2021/01/03 08:48:33;;;;;;;;;;;;;;;17.96;60.89;101190.41;5105790;28;1048;-61
2021/01/03 08:51:02;;;;;;;;;;;;;;;18.00;59.75;101183.84;5100439;28;1972;-64
2021/01/03 08:53:27;;;;;;;;;;;;;;;18.25;60.14;101188.13;5109419;27;1408;-62
2021/01/03 08:56:01;;;;;;;;;;;;;;;18.46;58.94;101176.69;5083264;28;1416;-66
2021/01/03 08:58:33;;;;;;;;;;;;;;;18.78;58.53;101178.63;5111041;28;1364;-65
2021/01/03 09:00:59;;;;;;;;;;;;;;;18.93;57.64;101164.03;5101502;28;1414;-63
2021/01/03 09:03:25;;;;;;;;;;;;;;;18.87;58.59;101164.53;5093069;28;1241;-61
2021/01/03 09:05:51;;;;;;;;;;;;;;;18.89;58.89;101154.53;5111445;28;1384;-61
2021/01/03 09:08:25;;;;;;;;;;;;;;;19.01;58.60;101158.88;5115766;28;1278;-61
2021/01/03 09:10:51;;;;;;;;;;;;;;;19.10;58.51;101153.72;5111197;28;1910;-61
2021/01/03 09:13:26;;;;;;;;;;;;;;;19.22;58.09;101158.09;5100424;28;1547;-63
2021/01/03 09:16:27;;;;;;;;;;;;;;;19.35;58.55;101160.59;5105629;28;1448;-62
2021/01/03 09:19:08;;;;;;;;;;;;;;;19.43;58.21;101166.16;5050541;28;1491;-61
2021/01/03 09:21:33;;;;;;;;;;;;;;;19.46;58.29;101144.47;5103871;28;1560;-63
2021/01/03 09:24:04;;;;;;;;;;;;;;;19.51;58.40;101149.44;5090145;28;1441;-61
2021/01/03 09:26:38;;;;;;;;;;;;;;;19.76;57.89;101154.47;5108455;28;1420;-61
2021/01/03 09:29:07;;;;;;;;;;;;;;;19.92;57.70;101142.41;5109065;28;1390;-63
2021/01/03 09:31:32;;;;;;;;;;;;;;;20.06;57.18;101131.31;5112273;28;1960;-63
2021/01/03 09:34:17;;;;;;;;;;;;;;;20.13;57.58;101143.22;5105817;28;1236;-60
2021/01/03 09:36:58;;;;;;;;;;;;;;;20.14;57.31;101139.56;5105189;28;1208;-63
2021/01/03 09:39:47;;;;;;;;;;;;;;;20.03;58.31;101131.56;5112703;28;1259;-63
2021/01/03 09:42:31;;;;;;;;;;;;;;;19.88;58.86;101124.88;5110298;27;1384;-62
2021/01/03 09:45:08;;;;;;;;;;;;;;;19.73;59.80;101125.19;5112062;28;1390;-62
2021/01/03 09:47:41;;;;;;;;;;;;;;;19.65;59.89;101136.53;5112590;27;1366;-67
2021/01/03 09:50:16;;;;;;;;;;;;;;;19.70;58.86;101133.47;5096387;28;1167;-64
2021/01/03 09:52:49;;;;;;;;;;;;;;;19.86;58.56;101119.63;5087385;28;1952;-61
2021/01/03 09:55:24;;;;;;;;;;;;;;;19.81;58.89;101109.28;5107944;28;1305;-63
2021/01/03 09:57:55;;;;;;;;;;;;;;;19.77;59.67;101109.69;5110912;27;1373;-61
2021/01/03 10:00:25;;;;;;;;;;;;;;;19.68;60.09;101113.97;5095302;28;1340;-64
2021/01/03 10:02:51;;;;;;;;;;;;;;;19.72;59.37;101104.72;5112408;28;1453;-61
2021/01/03 10:05:37;;;;;;;;;;;;;;;19.70;59.62;101113.88;5099688;28;1265;-65
2021/01/03 10:08:07;;;;;;;;;;;;;;;19.60;60.02;101108.44;5113118;27;1375;-60
2021/01/03 10:10:54;;;;;;;;;;;;;;;19.55;60.08;101100.75;5109577;28;1919;-62
2021/01/03 10:13:20;;;;;;;;;;;;;;;19.67;60.01;101099.69;5122596;27;1182;-60
2021/01/03 10:15:49;;;;;;;;;;;;;;;19.63;60.17;101095.56;5123436;27;1223;-59
2021/01/03 10:18:27;;;;;;;;;;;;;;;19.63;60.59;101075.97;5124680;27;1114;-59
2021/01/03 10:20:52;;;;;;;;;;;;;;;19.64;60.59;101091.09;5129270;27;1035;-59
2021/01/03 10:23:35;;;;;;;;;;;;;;;19.58;60.79;101088.94;5116975;27;1370;-59
2021/01/03 10:26:01;;;;;;;;;;;;;;;19.48;61.32;101067.41;5111631;28;1178;-58
2021/01/03 10:28:27;;;;;;;;;;;;;;;19.56;60.90;101064.06;5112793;28;1233;-65
2021/01/03 10:30:52;;;;;;;;;;;;;;;19.64;61.13;101077.66;5112195;28;1913;-63
2021/01/03 10:33:17;;;;;;;;;;;;;;;19.70;60.86;101061.03;5111758;28;1212;-61
2021/01/03 10:35:43;;;;;;;;;;;;;;;19.72;60.87;101059.09;5111940;28;1130;-64
2021/01/03 10:38:09;;;;;;;;;;;;;;;19.80;61.11;101053.91;5115263;27;1213;-66
2021/01/03 10:40:35;;;;;;;;;;;;;;;19.81;60.76;101055.59;5094884;28;1265;-59
2021/01/03 10:43:00;;;;;;;;;;;;;;;19.76;61.33;101062.38;5113513;28;900;-61
2021/01/03 10:45:25;;;;;;;;;;;;;;;19.82;60.92;101043.06;5113205;28;1524;-62
2021/01/03 10:47:51;;;;;;;;;;;;;;;19.82;61.01;101043.91;5114150;27;1557;-62
2021/01/03 10:50:17;;;;;;;;;;;;;;;19.81;61.10;101052.91;5129796;27;1556;-61
2021/01/03 10:52:42;;;;;;;;;;;;;;;19.86;61.05;101055.22;5121551;27;1889;-57
2021/01/03 10:55:08;;;;;;;;;;;;;;;19.83;61.40;101044.75;5113359;28;1513;-57
2021/01/03 10:57:33;;;;;;;;;;;;;;;19.78;61.43;101044.31;5104244;28;1452;-58
2021/01/03 10:59:59;;;;;;;;;;;;;;;19.79;61.52;101037.94;5118297;27;1499;-67
2021/01/03 11:02:24;;;;;;;;;;;;;;;19.79;61.60;101046.84;5101629;27;1587;-71
2021/01/03 11:04:50;;;;;;;;;;;;;;;19.77;61.79;101046.13;5113308;27;1513;-75
2021/01/03 11:07:16;;;;;;;;;;;;;;;19.78;62.10;101042.47;5107766;27;1533;-64
2021/01/03 11:09:41;;;;;;;;;;;;;;;19.78;61.90;101036.25;5107497;27;1377;-67
2021/01/03 11:12:10;;;;;;;;;;;;;;;19.80;62.20;101015.50;5126230;27;1989;-64
2021/01/03 11:14:36;;;;;;;;;;;;;;;19.76;61.91;101019.44;5103962;27;1354;-65
2021/01/03 11:17:06;;;;;;;;;;;;;;;19.80;62.32;101026.25;5113111;28;1624;-66
2021/01/03 11:19:31;;;;;;;;;;;;;;;19.87;62.23;101051.53;5112743;28;1494;-65
2021/01/03 11:21:58;;;;;;;;;;;;;;;19.87;62.00;101032.75;5113802;27;1533;-61
2021/01/03 11:24:23;;;;;;;;;;;;;;;19.89;62.03;101035.31;5129954;27;1474;-60
2021/01/03 11:26:49;;;;;;;;;;;;;;;19.88;62.18;101036.31;5119048;27;1296;-60
2021/01/03 11:29:15;;;;;;;;;;;;;;;19.85;62.18;101022.16;5124725;27;1497;-59
2021/01/03 11:31:42;;;;;;;;;;;;;;;19.94;62.00;101031.25;5129361;27;1910;-59
2021/01/03 11:34:08;;;;;;;;;;;;;;;19.91;62.22;101042.22;5120129;27;1513;-59
2021/01/03 11:36:34;;;;;;;;;;;;;;;19.80;62.40;101045.88;5126241;27;1502;-59
2021/01/03 11:39:00;;;;;;;;;;;;;;;19.74;62.75;101051.78;5119124;27;1306;-59
2021/01/03 11:41:25;;;;;;;;;;;;;;;19.71;62.73;101037.75;5116453;27;1466;-59
2021/01/03 11:43:50;;;;;;;;;;;;;;;19.80;62.54;101034.28;5115840;27;1544;-59
2021/01/03 11:46:17;;;;;;;;;;;;;;;19.77;62.64;101051.50;5123140;27;1537;-59
2021/01/03 11:48:42;;;;;;;;;;;;;;;19.82;62.78;101038.53;5117309;27;1162;-59
2021/01/03 11:51:09;;;;;;;;;;;;;;;19.81;62.81;101049.41;5108342;27;1878;-59
2021/01/03 11:53:34;;;;;;;;;;;;;;;19.71;63.11;101054.72;5123816;27;1556;-60
2021/01/03 11:56:00;;;;;;;;;;;;;;;19.72;63.09;101052.91;5133228;27;740;-58
2021/01/03 11:58:25;;;;;;;;;;;;;;;19.76;63.27;101038.22;5119002;27;1521;-58
2021/01/03 12:00:51;;;;;;;;;;;;;;;19.76;63.33;101044.44;5126623;27;1517;-59
2021/01/03 12:03:17;;;;;;;;;;;;;;;19.75;63.27;101032.00;5121842;27;1572;-59
2021/01/03 12:05:42;;;;;;;;;;;;;;;19.74;63.23;101045.56;5111370;28;860;-63
2021/01/03 12:08:07;;;;;;;;;;;;;;;19.72;63.23;101039.47;5095914;27;1499;-60
2021/01/03 12:10:32;;;;;;;;;;;;;;;19.55;62.87;101055.16;5118751;27;1992;-60
2021/01/03 12:12:58;;;;;;;;;;;;;;;19.45;63.55;101052.41;5117277;27;1525;-61
2021/01/03 12:15:24;;;;;;;;;;;;;;;19.42;62.94;101063.41;4410991;27;10000868;-57
2021/01/03 12:17:49;;;;;;;;;;;;;;;19.47;62.51;101060.31;5101291;28;1546;-57
2021/01/03 12:20:14;;;;;;;;;;;;;;;19.50;62.57;101060.06;5100909;28;1522;-58
2021/01/03 12:22:39;;;;;;;;;;;;;;;19.51;61.26;101051.03;5095406;27;1557;-57
2021/01/03 12:25:08;;;;;;;;;;;;;;;19.56;61.36;101074.81;5109656;28;744;-57
2021/01/03 12:27:33;;;;;;;;;;;;;;;19.46;61.39;101053.28;5107097;28;1525;-57
2021/01/03 12:29:59;;;;;;;;;;;;;;;19.56;61.44;101059.56;5098161;28;1541;-57
2021/01/03 12:32:24;;;;;;;;;;;;;;;19.65;61.40;101052.53;5109143;28;1989;-59
2021/01/03 12:34:49;;;;;;;;;;;;;;;19.63;61.58;101049.13;5113353;27;1277;-59
2021/01/03 12:37:17;;;;;;;;;;;;;;;19.63;61.61;101044.59;5117707;27;1358;-60
2021/01/03 12:39:43;;;;;;;;;;;;;;;19.68;61.71;101037.03;5107945;28;1390;-59
2021/01/03 12:42:09;;;;;;;;;;;;;;;19.74;61.78;101035.66;5093793;28;1549;-61
2021/01/03 12:44:35;;;;;;;;;;;;;;;19.73;62.19;101052.75;5078162;28;1597;-60
2021/01/03 12:47:00;;;;;;;;;;;;;;;19.75;62.67;101052.63;5112644;27;1335;-60
2021/01/03 12:49:26;;;;;;;;;;;;;;;19.74;62.40;101056.28;5122046;27;1346;-61
2021/01/03 12:51:52;;;;;;;;;;;;;;;19.76;62.40;101049.81;5113866;27;1885;-60
2021/01/03 12:54:17;;;;;;;;;;;;;;;19.70;62.78;101049.47;5124370;27;1150;-59
2021/01/03 12:56:43;;;;;;;;;;;;;;;19.63;62.70;101044.59;5128596;27;1466;-62
2021/01/03 12:59:08;;;;;;;;;;;;;;;19.68;62.72;101060.31;5130347;27;1477;-64